Tiempo atmosférico en la estación meteorológica de Retiendas, Guadalajara (910 m.)



Fecha
DESCASC
Temp. máxima en grados centígrados (hora)
DESCASC
Temp. mínima en grados centígrados (hora)
DESCASC
Temp. media en grados centígrados
DESCASC
Racha de viento máxima en m/sg (hora)
DESCASC
Velocidad máxima media en intervalos de 10 minutos(hora)
DESCASC
Precipitaciones diarias en mm
DESCASC
Precipitaciones de 00:00 a 06:00 en mm
DESCASC
Precipitaciones de 06:00 a 12:00 en mm
DESCASC
Precipitaciones de 12:00 a 18:00 en mm
DESCASC
Precipitaciones de 18:00 a 24:00 en mm
DESCASC

Gráficas

Temp. máximas Temp. mínimas Temp. medias Precipitaciones Rachas de viento máximas Velocidades máximas media en intervalos de 10 minutos

Datos horarios

Fecha y hora oficial Temperatura (ºC) Velocidad del viento (km/h) Dirección del viento Racha (km/h) Dirección de racha Precipitación (mm) Presión (hPa) Tendencia (hPa) Humedad (%)
2019-10-14 23:00:00 7.7 8 Sudeste 32 Sur 0 -- -- 81
2019-10-14 22:00:00 7.4 5 Sur 9 Sur 0 -- -- 95
2019-10-14 21:00:00 7.5 3 Sudeste 13 Nordeste 0 -- -- 92
2019-10-14 20:00:00 7.8 9 Nordeste 36 Nordeste 1.2 -- -- 86
2019-10-14 19:00:00 9.2 20 Nordeste 40 Este 0 -- -- 80
2019-10-14 18:00:00 16 21 Sudeste 43 Sudeste 0 -- -- 46
2019-10-14 17:00:00 17.8 12 Sudoeste 35 Sudeste 0 -- -- 44
2019-10-14 16:00:00 17.8 14 Sudeste 39 Sudeste 0 -- -- 44
2019-10-14 15:00:00 17.3 18 Sudeste 42 Sudeste 0.2 -- -- 54
2019-10-14 14:00:00 15.7 14 Sudeste 36 Sudeste 0 -- -- 73
2019-10-14 13:00:00 15 7 Sudeste 34 Sudeste 0.4 -- -- 79
2019-10-14 12:00:00 15.5 7 Oeste 27 Sudeste 0 -- -- 71
2019-10-14 11:00:00 15.5 16 Sudeste 33 Sudeste 0 -- -- 72
2019-10-14 10:00:00 13 0 Calma 6 Nordeste 0 -- -- 93
2019-10-14 09:00:00 12 0 Calma 13 Nordeste 0 -- -- 95
2019-10-14 08:00:00 10.7 0 Calma 3 Norte 0 -- -- 95
2019-10-14 07:00:00 11.2 0 Calma 8 Norte 0 -- -- 92
2019-10-14 06:00:00 11.5 0 Calma 6 Nordeste 0 -- -- 91
2019-10-14 05:00:00 11.1 2 Este 10 Norte 0 -- -- 91
2019-10-14 04:00:00 10.9 5 Nordeste 10 Norte 0 -- -- 90
2019-10-14 03:00:00 11.1 4 Nordeste 9 Nordeste 0 -- -- 90
2019-10-14 02:00:00 11.2 3 Norte 9 Nordeste 0 -- -- 89
2019-10-14 01:00:00 11.6 2 Norte 8 Nordeste 0 -- -- 88
2019-10-14 00:00:00 12.3 5 Norte 8 Nordeste 0 -- -- 88
2019-10-13 23:00:00 12.6 0 Calma 5 Nordeste 0 -- -- 88
2019-10-13 22:00:00 13.2 0 Calma 4 Este 0 -- -- 86
2019-10-13 21:00:00 14.2 0 Calma 5 Sur 0 -- -- 82
2019-10-13 20:00:00 15.8 3 Sur 5 Sur 0 -- -- 76
2019-10-13 19:00:00 18 2 Sudoeste 22 Sudeste 0 -- -- 67
2019-10-13 18:00:00 20.3 12 Sur 29 Sudeste 0 -- -- 51
2019-10-13 17:00:00 21.4 11 Sur 25 Sudeste 0 -- -- 50
2019-10-13 16:00:00 20.2 11 Sudeste 27 Sudeste 0 -- -- 58
2019-10-13 15:00:00 20 14 Sudeste 27 Sudeste 0 -- -- 57
2019-10-13 14:00:00 19.3 10 Sudeste 26 Sudeste 0 -- -- 66
2019-10-13 13:00:00 18 12 Sudeste 23 Sudeste 0 -- -- 73
2019-10-13 12:00:00 15.7 9 Sudeste 17 Sudeste 0 -- -- 88
2019-10-13 11:00:00 14.7 3 Sudeste 13 Sur 0 -- -- 94
2019-10-13 10:00:00 13.4 0 Calma 4 Nordeste 0 -- -- 95
2019-10-13 09:00:00 12.7 0 Calma 4 Nordeste 0 -- -- 95
2019-10-13 08:00:00 12.4 0 Calma 4 Norte 0 -- -- 96
2019-10-13 07:00:00 11.9 0 Calma 8 Nordeste 0 -- -- 95
2019-10-13 06:00:00 11.6 4 Nordeste 9 Norte 0 -- -- 94
2019-10-13 05:00:00 11.2 4 Nordeste 8 Norte 0 -- -- 96
2019-10-13 04:00:00 11.3 3 Norte 9 Nordeste 0 -- -- 95
2019-10-13 03:00:00 12 3 Noroeste 14 Nordeste 0 -- -- 94
2019-10-13 02:00:00 13.1 4 Norte 12 Norte 0 -- -- 92
2019-10-13 01:00:00 13.2 5 Nordeste 13 Nordeste 0 -- -- 94
2019-10-13 00:00:00 13.5 4 Norte 11 Este 0.2 -- -- 91
2019-10-12 23:00:00 13.1 3 Noroeste 28 Sudoeste 1.6 -- -- 95
2019-10-12 22:00:00 13.4 13 Sur 44 Sudeste 10.2 -- -- 87
2019-10-12 21:00:00 17.2 0 Calma 8 Nordeste 0 -- -- 68
2019-10-12 20:00:00 18.7 0 Calma 5 Sudoeste 0 -- -- 63
2019-10-12 19:00:00 20.7 0 Calma 4 Nordeste 0 -- -- 56
2019-10-12 18:00:00 22 0 Calma 10 Sudeste 0 -- -- 51
2019-10-12 17:00:00 21.9 3 Nordeste 21 Sudeste 0 -- -- 49
2019-10-12 16:00:00 23.5 12 Sudeste 33 Sudeste 0 -- -- 45
2019-10-12 15:00:00 24 9 Sur 22 Sudeste 0 -- -- 47
2019-10-12 14:00:00 22.6 7 Sur 18 Sur 0 -- -- 52
2019-10-12 13:00:00 19.7 2 Nordeste 6 Nordeste 0 -- -- 61
2019-10-12 12:00:00 17.6 0 Calma 6 Este 0 -- -- 74
2019-10-12 11:00:00 16.2 0 Calma 8 Nordeste 0 -- -- 78
2019-10-12 10:00:00 14.9 0 Calma 2 Norte 0 -- -- 84
2019-10-12 09:00:00 14.9 0 Calma 6 Nordeste 0 -- -- 82
2019-10-12 08:00:00 15 0 Calma 8 Nordeste 0 -- -- 81
2019-10-12 07:00:00 14.5 0 Calma 3 Nordeste 0 -- -- 85
2019-10-12 06:00:00 15.2 0 Calma 5 Nordeste 0 -- -- 84
2019-10-12 05:00:00 15.1 0 Calma 6 Norte 0 -- -- 86
2019-10-12 04:00:00 15.5 0 Calma 0 Calma 0 -- -- 83
2019-10-12 03:00:00 15.9 0 Calma 3 Sur 0 -- -- 82
2019-10-12 02:00:00 16.8 0 Calma 6 Nordeste 0 -- -- 78
2019-10-12 01:00:00 17.1 4 Nordeste 10 Nordeste 0 -- -- 76
2019-10-12 00:00:00 17 0 Calma 9 Este 0 -- -- 77
2019-10-11 23:00:00 17 0 Calma 9 Nordeste 0 -- -- 77
2019-10-11 22:00:00 17.8 0 Calma 6 Norte 0 -- -- 74
2019-10-11 21:00:00 18.9 0 Calma 2 Sudoeste 0 -- -- 71
2019-10-11 20:00:00 20.3 0 Calma 4 Sur 0 -- -- 66
2019-10-11 19:00:00 22.1 0 Calma 18 Sudeste 0 -- -- 59
2019-10-11 18:00:00 24.3 10 Sur 19 Sudeste 0 -- -- 51
2019-10-11 17:00:00 25.2 11 Sudeste 23 Sudeste 0 -- -- 49
2019-10-11 16:00:00 25.4 12 Sudeste 27 Sudeste 0 -- -- 48
2019-10-11 15:00:00 24.5 11 Sudeste 26 Sudeste 0 -- -- 52
2019-10-11 14:00:00 23.3 11 Sudeste 26 Sudeste 0 -- -- 55
2019-10-11 13:00:00 21.9 9 Sudeste 21 Sudeste 0 -- -- 60
2019-10-11 12:00:00 19.3 3 Este 9 Sur 0 -- -- 70
2019-10-11 11:00:00 15.2 0 Calma 8 Este 0 -- -- 77
2019-10-11 10:00:00 12 2 Nordeste 10 Nordeste 0 -- -- 86
2019-10-11 09:00:00 10.6 4 Norte 8 Nordeste 0 -- -- 92
2019-10-11 08:00:00 10.6 0 Calma 5 Nordeste 0 -- -- 92
2019-10-11 07:00:00 10.7 3 Norte 5 Nordeste 0 -- -- 91
2019-10-11 06:00:00 11.1 2 Norte 9 Norte 0 -- -- 89
2019-10-11 05:00:00 11.2 4 Norte 7 Norte 0 -- -- 89
2019-10-11 04:00:00 11.6 4 Norte 9 Norte 0 -- -- 88
2019-10-11 03:00:00 12 0 Calma 9 Nordeste 0 -- -- 87
2019-10-11 02:00:00 12.7 4 Nordeste 10 Nordeste 0 -- -- 85
2019-10-11 01:00:00 12.8 2 Norte 7 Sur 0 -- -- 84
2019-10-11 00:00:00 13.9 4 Norte 13 Norte 0 -- -- 78
2019-10-10 23:00:00 14.6 3 Norte 9 Nordeste 0 -- -- 75
2019-10-10 22:00:00 15.8 3 Norte 9 Norte 0 -- -- 71
2019-10-10 21:00:00 16.8 0 Calma 4 Nordeste 0 -- -- 66
2019-10-10 20:00:00 18.5 0 Calma 6 Sudoeste 0 -- -- 60
2019-10-10 19:00:00 20.7 2 Sudoeste 18 Sur 0 -- -- 55
2019-10-10 18:00:00 22.9 5 Sur 19 Sudeste 0 -- -- 50
2019-10-10 17:00:00 24.1 5 Sur 22 Sudeste 0 -- -- 47
2019-10-10 16:00:00 23 9 Sur 19 Sudeste 0 -- -- 52
2019-10-10 15:00:00 22.2 5 Sur 16 Sur 0 -- -- 55
2019-10-10 14:00:00 20 6 Sur 15 Sudeste 0 -- -- 61
2019-10-10 13:00:00 18.1 5 Sudeste 10 Sudeste 0 -- -- 68
2019-10-10 12:00:00 14.5 0 Calma 6 Nordeste 0 -- -- 68
2019-10-10 11:00:00 12.2 0 Calma 11 Nordeste 0 -- -- 72
2019-10-10 10:00:00 10.2 6 Nordeste 13 Nordeste 0 -- -- 77
2019-10-10 09:00:00 8.9 7 Nordeste 11 Nordeste 0 -- -- 82
2019-10-10 08:00:00 8.7 4 Norte 9 Norte 0 -- -- 82
2019-10-10 07:00:00 9.3 3 Norte 12 Nordeste 0 -- -- 80
2019-10-10 06:00:00 9.7 6 Nordeste 14 Nordeste 0 -- -- 78
2019-10-10 05:00:00 10.7 2 Norte 6 Este 0 -- -- 79
2019-10-10 04:00:00 10.6 3 Noroeste 9 Nordeste 0 -- -- 74
2019-10-10 03:00:00 11.5 5 Norte 12 Norte 0 -- -- 72
2019-10-10 02:00:00 12.2 2 Norte 11 Nordeste 0 -- -- 69
2019-10-10 01:00:00 13.3 4 Nordeste 8 Este 0 -- -- 67
2019-10-10 00:00:00 14.3 3 Nordeste 6 Nordeste 0 -- -- 62
2019-10-09 23:00:00 15.9 3 Sur 9 Noroeste 0 -- -- 55
2019-10-09 22:00:00 17.6 5 Norte 10 Norte 0 -- -- 51
2019-10-09 21:00:00 19 0 Calma 11 Nordeste 0 -- -- 49
2019-10-09 20:00:00 21.9 4 Norte 15 Nordeste 0 -- -- 40
2019-10-09 19:00:00 23.7 3 Este 15 Nordeste 0 -- -- 35
2019-10-09 18:00:00 25.3 8 Nordeste 15 Nordeste 0 -- -- 27
2019-10-09 17:00:00 26.1 4 Nordeste 19 Nordeste 0 -- -- 21
2019-10-09 16:00:00 26.5 5 Nordeste 20 Sudeste 0 -- -- 23
2019-10-09 15:00:00 26.2 9 Sur 23 Sudeste 0 -- -- 38
2019-10-09 14:00:00 25.5 8 Sur 17 Sudeste 0 -- -- 42
2019-10-09 13:00:00 23.3 4 Este 19 Nordeste 0 -- -- 48
2019-10-09 12:00:00 21.7 11 Nordeste 22 Nordeste 0 -- -- 50
2019-10-09 11:00:00 20 12 Nordeste 23 Norte 0 -- -- 60
2019-10-09 10:00:00 16.8 0 Calma 9 Nordeste 0 -- -- 74
2019-10-09 09:00:00 16.1 5 Nordeste 15 Nordeste 0 -- -- 75
2019-10-09 08:00:00 13.7 0 Calma 14 Nordeste 0 -- -- 80
2019-10-09 07:00:00 13.5 3 Norte 11 Nordeste 0 -- -- 79
2019-10-09 06:00:00 14.3 6 Nordeste 10 Nordeste 0 -- -- 76
2019-10-09 05:00:00 15 3 Nordeste 13 Nordeste 0 -- -- 73
2019-10-09 04:00:00 14.1 0 Calma 12 Nordeste 0 -- -- 72
2019-10-09 03:00:00 14.3 0 Calma 6 Noroeste 0 -- -- 70
2019-10-09 02:00:00 14.9 5 Noroeste 16 Nordeste 0 -- -- 66
2019-10-09 01:00:00 15.3 4 Norte 14 Nordeste 0 -- -- 65
2019-10-09 00:00:00 15.9 4 Norte 11 Nordeste 0 -- -- 62
2019-10-08 23:00:00 17.2 5 Nordeste 10 Nordeste 0 -- -- 59
2019-10-08 22:00:00 18.5 4 Nordeste 11 Nordeste 0 -- -- 56
2019-10-08 21:00:00 19.6 0 Calma 7 Sur 0 -- -- 52
2019-10-08 20:00:00 22.1 5 Sur 13 Sudoeste 0 -- -- 46
2019-10-08 19:00:00 24.2 5 Sudoeste 18 Sudeste 0 -- -- 38
2019-10-08 18:00:00 26.6 9 Sur 23 Sudeste 0 -- -- 34
2019-10-08 17:00:00 27.9 7 Sudoeste 19 Sudeste 0 -- -- 32
2019-10-08 16:00:00 27.3 8 Sur 27 Sudeste 0 -- -- 31
2019-10-08 15:00:00 26.2 11 Sudeste 29 Sudeste 0 -- -- 32
2019-10-08 14:00:00 25.5 9 Sudeste 21 Sudoeste 0 -- -- 35
2019-10-08 13:00:00 24.3 8 Sudoeste 26 Sudeste 0 -- -- 36
2019-10-08 12:00:00 22.1 9 Sudeste 17 Sudeste 0 -- -- 43
2019-10-08 11:00:00 16.5 0 Calma 8 Nordeste 0 -- -- 60
2019-10-08 10:00:00 13.5 5 Nordeste 13 Nordeste 0 -- -- 66
2019-10-08 09:00:00 11.5 8 Nordeste 12 Nordeste 0 -- -- 74
2019-10-08 08:00:00 11 0 Calma 10 Norte 0 -- -- 75
2019-10-08 07:00:00 11.2 3 Norte 9 Nordeste 0 -- -- 74
2019-10-08 06:00:00 11.6 0 Calma 15 Nordeste 0 -- -- 72
2019-10-08 05:00:00 12.4 3 Nordeste 11 Norte 0 -- -- 70
2019-10-08 04:00:00 12.5 0 Calma 14 Nordeste 0 -- -- 69
2019-10-08 03:00:00 13 0 Calma 9 Nordeste 0 -- -- 68
2019-10-08 02:00:00 14 4 Norte 15 Nordeste 0 -- -- 65
2019-10-08 01:00:00 15.3 5 Norte 15 Norte 0 -- -- 61
2019-10-08 00:00:00 16 2 Sudeste 21 Nordeste 0 -- -- 60
2019-10-07 23:00:00 17.4 11 Nordeste 18 Norte 0 -- -- 55
2019-10-07 22:00:00 18.5 4 Norte 15 Nordeste 0 -- -- 51
2019-10-07 21:00:00 20.4 5 Norte 10 Nordeste 0 -- -- 45
2019-10-07 20:00:00 22.4 6 Nordeste 19 Nordeste 0 -- -- 41
2019-10-07 19:00:00 23.8 12 Nordeste 21 Nordeste 0 -- -- 38
2019-10-07 18:00:00 24.9 12 Nordeste 26 Nordeste 0 -- -- 37
2019-10-07 17:00:00 26 8 Este 30 Nordeste 0 -- -- 37
2019-10-07 16:00:00 25.4 17 Nordeste 26 Nordeste 0 -- -- 35
2019-10-07 15:00:00 25 8 Nordeste 25 Nordeste 0 -- -- 36
2019-10-07 14:00:00 25.4 8 Noroeste 22 Nordeste 0 -- -- 36
2019-10-07 13:00:00 23.7 11 Nordeste 22 Nordeste 0 -- -- 34
2019-10-07 12:00:00 21.5 0 Calma 15 Sudeste 0 -- -- 37
2019-10-07 11:00:00 17.1 6 Sudeste 14 Sur 0 -- -- 51
2019-10-07 10:00:00 11.2 0 Calma 4 Sudoeste 0 -- -- 74
2019-10-07 09:00:00 9.6 0 Calma 2 Norte 0 -- -- 83
2019-10-07 08:00:00 8.9 0 Calma 2 Sur 0 -- -- 84
2019-10-07 07:00:00 9.2 0 Calma 2 Norte 0 -- -- 81
2019-10-07 06:00:00 9.6 0 Calma 2 Sur 0 -- -- 80
2019-10-07 05:00:00 10 0 Calma 2 Sur 0 -- -- 78
2019-10-07 04:00:00 10.6 0 Calma 6 Nordeste 0 -- -- 77
2019-10-07 03:00:00 11.1 0 Calma 4 Sudeste 0 -- -- 72
2019-10-07 02:00:00 12.9 0 Calma 9 Este 0 -- -- 65
2019-10-07 01:00:00 13.5 4 Nordeste 9 Nordeste 0 -- -- 65
2019-10-07 00:00:00 13.7 0 Calma 3 Nordeste 0 -- -- 63
2019-10-06 23:00:00 15.1 0 Calma 3 Norte 0 -- -- 56
2019-10-06 22:00:00 16.9 0 Calma 15 Norte 0 -- -- 51
2019-10-06 21:00:00 19.8 8 Nordeste 24 Nordeste 0 -- -- 41
2019-10-06 20:00:00 21.6 9 Nordeste 21 Nordeste 0 -- -- 35
2019-10-06 19:00:00 22.9 12 Nordeste 25 Nordeste 0 -- -- 30
2019-10-06 18:00:00 24.1 9 Nordeste 21 Nordeste 0 -- -- 29
2019-10-06 17:00:00 24.6 10 Nordeste 21 Nordeste 0 -- -- 29
2019-10-06 16:00:00 24.5 11 Nordeste 23 Nordeste 0 -- -- 30
2019-10-06 15:00:00 25.5 5 Sudoeste 18 Sudeste 0 -- -- 34
2019-10-06 14:00:00 24.3 6 Sur 15 Este 0 -- -- 33
2019-10-06 13:00:00 21.9 4 Sur 12 Sur 0 -- -- 36
2019-10-06 12:00:00 20.5 2 Este 7 Sur 0 -- -- 38
2019-10-06 11:00:00 15.2 0 Calma 9 Nordeste 0 -- -- 55
2019-10-06 10:00:00 12.6 4 Nordeste 10 Nordeste 0 -- -- 66
2019-10-06 09:00:00 11.2 7 Nordeste 14 Este 0 -- -- 73
2019-10-06 08:00:00 11.5 4 Norte 15 Norte 0 -- -- 72
2019-10-06 07:00:00 11.4 0 Calma 8 Noroeste 0 -- -- 73
2019-10-06 06:00:00 11.2 2 Norte 5 Norte 0 -- -- 76
2019-10-06 05:00:00 11.3 0 Calma 7 Norte 0 -- -- 75
2019-10-06 04:00:00 12.1 0 Calma 13 Nordeste 0 -- -- 72
2019-10-06 03:00:00 12 3 Este 10 Nordeste 0 -- -- 72
2019-10-06 02:00:00 13 0 Calma 9 Nordeste 0 -- -- 66
2019-10-06 01:00:00 13.1 0 Calma 12 Nordeste 0 -- -- 66
2019-10-06 00:00:00 13.7 0 Calma 10 Norte 0 -- -- 63
2019-10-05 23:00:00 15.2 4 Nordeste 9 Nordeste 0 -- -- 58
2019-10-05 22:00:00 16.8 3 Nordeste 10 Nordeste 0 -- -- 54
2019-10-05 21:00:00 18.6 0 Calma 8 Nordeste 0 -- -- 52
2019-10-05 20:00:00 21.3 4 Noroeste 12 Sur 0 -- -- 44
2019-10-05 19:00:00 23 4 Sudoeste 17 Sudeste 0 -- -- 44
2019-10-05 18:00:00 25.4 8 Sur 22 Sudeste 0 -- -- 40
2019-10-05 17:00:00 26.2 8 Sur 22 Sudeste 0 -- -- 39
2019-10-05 16:00:00 26.2 6 Sudoeste 25 Sur 0 -- -- 37
2019-10-05 15:00:00 24.8 9 Sur 22 Sudeste 0 -- -- 39
2019-10-05 14:00:00 24 11 Sudeste 24 Sudeste 0 -- -- 41
2019-10-05 13:00:00 22.9 8 Sur 17 Sur 0 -- -- 44
2019-10-05 12:00:00 20.5 4 Sur 10 Sudeste 0 -- -- 48
2019-10-05 11:00:00 15.4 5 Nordeste 11 Nordeste 0 -- -- 63
2019-10-05 10:00:00 11.9 8 Nordeste 13 Nordeste 0 -- -- 73
2019-10-05 09:00:00 9.8 8 Nordeste 11 Nordeste 0 -- -- 81
2019-10-05 08:00:00 9.8 5 Nordeste 10 Norte 0 -- -- 82
2019-10-05 07:00:00 10.2 0 Calma 8 Norte 0 -- -- 82
2019-10-05 06:00:00 11.5 5 Nordeste 12 Noroeste 0 -- -- 79
2019-10-05 05:00:00 12.1 3 Noroeste 9 Norte 0 -- -- 78
2019-10-05 04:00:00 13.5 2 Norte 17 Nordeste 0 -- -- 74
2019-10-05 03:00:00 13.9 3 Nordeste 13 Nordeste 0 -- -- 74
2019-10-05 02:00:00 14.6 5 Nordeste 17 Nordeste 0 -- -- 72
2019-10-05 01:00:00 15 12 Nordeste 18 Nordeste 0 -- -- 69
2019-10-05 00:00:00 15 6 Nordeste 13 Nordeste 0 -- -- 65
2019-10-04 23:00:00 15.6 3 Norte 12 Norte 0 -- -- 62
2019-10-04 22:00:00 16.1 3 Norte 6 Norte 0 -- -- 57
2019-10-04 21:00:00 17.7 0 Calma 6 Sur 0 -- -- 49
2019-10-04 20:00:00 21.5 6 Sur 13 Sudoeste 0 -- -- 41
2019-10-04 19:00:00 22.2 3 Sudoeste 23 Sudoeste 0 -- -- 39
2019-10-04 18:00:00 25.1 7 Sur 25 Sudeste 0 -- -- 33
2019-10-04 17:00:00 26.3 9 Sur 23 Sudeste 0 -- -- 34
2019-10-04 16:00:00 26 8 Sur 27 Sudeste 0 -- -- 31
2019-10-04 15:00:00 24.9 9 Sudeste 29 Sudeste 0 -- -- 30
2019-10-04 14:00:00 23.5 10 Sur 28 Sur 0 -- -- 33
2019-10-04 13:00:00 22.3 11 Sudeste 23 Sudeste 0 -- -- 35
2019-10-04 12:00:00 20.5 11 Sudeste 17 Sudeste 0 -- -- 39
2019-10-04 11:00:00 15 2 Nordeste 8 Nordeste 0 -- -- 55
2019-10-04 10:00:00 11.5 4 Nordeste 10 Nordeste 0 -- -- 67
2019-10-04 09:00:00 9.3 3 Norte 10 Nordeste 0 -- -- 73
2019-10-04 08:00:00 8.8 3 Norte 9 Norte 0 -- -- 74
2019-10-04 07:00:00 9.3 3 Norte 9 Nordeste 0 -- -- 73
2019-10-04 06:00:00 9.6 0 Calma 5 Nordeste 0 -- -- 71
2019-10-04 05:00:00 10 3 Norte 9 Norte 0 -- -- 68
2019-10-04 04:00:00 10.3 0 Calma 13 Norte 0 -- -- 67
2019-10-04 03:00:00 11.1 6 Norte 11 Nordeste 0 -- -- 63
2019-10-04 02:00:00 11.8 5 Nordeste 11 Nordeste 0 -- -- 63
2019-10-04 01:00:00 12.2 0 Calma 6 Norte 0 -- -- 61
2019-10-04 00:00:00 13.4 4 Norte 10 Nordeste 0 -- -- 57
2019-10-03 23:00:00 14.7 0 Calma 9 Nordeste 0 -- -- 51
2019-10-03 22:00:00 16.1 5 Nordeste 15 Nordeste 0 -- -- 48
2019-10-03 21:00:00 19 10 Nordeste 17 Nordeste 0 -- -- 38
2019-10-03 20:00:00 20.3 4 Noroeste 9 Norte 0 -- -- 36
2019-10-03 19:00:00 22.6 6 Nordeste 20 Nordeste 0 -- -- 30
2019-10-03 18:00:00 24.1 9 Nordeste 23 Nordeste 0 -- -- 27
2019-10-03 17:00:00 25.4 4 Oeste 19 Sur 0 -- -- 33
2019-10-03 16:00:00 24.4 5 Oeste 20 Sudeste 0 -- -- 35
2019-10-03 15:00:00 23.9 8 Sur 17 Sur 0 -- -- 33
2019-10-03 14:00:00 22 6 Sur 15 Sur 0 -- -- 34
2019-10-03 13:00:00 19.8 9 Sudeste 18 Sudeste 0 -- -- 39
2019-10-03 12:00:00 16.9 4 Sudeste 10 Sudeste 0 -- -- 48
2019-10-03 11:00:00 11.8 2 Nordeste 8 Nordeste 0 -- -- 64
2019-10-03 10:00:00 8.7 6 Nordeste 8 Nordeste 0 -- -- 75
2019-10-03 09:00:00 7 4 Nordeste 8 Norte 0 -- -- 83
2019-10-03 08:00:00 6.5 0 Calma 6 Norte 0 -- -- 85
2019-10-03 07:00:00 7.2 3 Norte 8 Norte 0 -- -- 83
2019-10-03 06:00:00 7.4 0 Calma 4 Sur 0 -- -- 85
2019-10-03 05:00:00 8 0 Calma 6 Sur 0 -- -- 83
2019-10-03 04:00:00 8.7 0 Calma 9 Norte 0 -- -- 78
2019-10-03 03:00:00 9.5 4 Norte 11 Nordeste 0 -- -- 75
2019-10-03 02:00:00 10.1 3 Sudoeste 13 Norte 0 -- -- 75
2019-10-03 01:00:00 10.9 3 Norte 8 Nordeste 0 -- -- 71
2019-10-03 00:00:00 12.5 5 Nordeste 14 Nordeste 0 -- -- 65
2019-10-02 23:00:00 14.8 6 Nordeste 16 Norte 0 -- -- 54
2019-10-02 22:00:00 15.1 5 Nordeste 14 Este 0 -- -- 53
2019-10-02 21:00:00 15.9 5 Nordeste 10 Nordeste 0 -- -- 53
2019-10-02 20:00:00 16.8 2 Noroeste 13 Nordeste 0 -- -- 49
2019-10-02 19:00:00 18.1 2 Sur 16 Nordeste 0 -- -- 45
2019-10-02 18:00:00 18.7 13 Nordeste 29 Nordeste 0 -- -- 43
2019-10-02 17:00:00 19 13 Nordeste 29 Nordeste 0 -- -- 42
2019-10-02 16:00:00 18.8 14 Norte 32 Nordeste 0 -- -- 45
2019-10-02 15:00:00 18.3 12 Nordeste 30 Nordeste 0 -- -- 44
2019-10-02 14:00:00 18.3 9 Nordeste 31 Nordeste 0 -- -- 42
2019-10-02 13:00:00 17.4 13 Nordeste 30 Nordeste 0 -- -- 41
2019-10-02 12:00:00 16.1 10 Nordeste 25 Nordeste 0 -- -- 49
2019-10-02 11:00:00 14 12 Nordeste 31 Nordeste 0 -- -- 58
2019-10-02 10:00:00 12 6 Nordeste 14 Nordeste 0 -- -- 68
2019-10-02 09:00:00 8.4 0 Calma 3 Sudeste 0 -- -- 87
2019-10-02 08:00:00 9.1 0 Calma 2 Este 0 -- -- 83
2019-10-02 07:00:00 10.2 0 Calma 5 Sudeste 0 -- -- 78
2019-10-02 06:00:00 12.1 3 Sur 25 Nordeste 0 -- -- 70
2019-10-02 05:00:00 14.5 9 Nordeste 19 Nordeste 0 -- -- 59
2019-10-02 04:00:00 15.2 6 Sudeste 21 Nordeste 0 -- -- 57
2019-10-02 03:00:00 16 7 Nordeste 19 Norte 0 -- -- 58
2019-10-02 02:00:00 16.4 4 Norte 21 Nordeste 0 -- -- 57
2019-10-02 01:00:00 17.2 3 Nordeste 21 Nordeste 0 -- -- 53
2019-10-02 00:00:00 17.3 6 Nordeste 16 Este 0 -- -- 53
2019-10-01 23:00:00 14.2 0 Calma 4 Norte 0 -- -- 69
2019-10-01 22:00:00 16.1 0 Calma 5 Nordeste 0 -- -- 60
2019-10-01 21:00:00 18.6 3 Norte 25 Nordeste 0 -- -- 53
2019-10-01 20:00:00 19.8 5 Norte 24 Nordeste 0 -- -- 49
2019-10-01 19:00:00 21 8 Este 29 Nordeste 0 -- -- 48
2019-10-01 18:00:00 22.4 8 Sur 21 Sur 0 -- -- 43
2019-10-01 17:00:00 22.6 8 Sur 30 Nordeste 0 -- -- 42
2019-10-01 16:00:00 22.1 12 Este 33 Nordeste 0 -- -- 39
2019-10-01 15:00:00 22.5 10 Este 31 Norte 0 -- -- 36
2019-10-01 14:00:00 22.6 12 Nordeste 28 Nordeste 0 -- -- 38
2019-10-01 13:00:00 22.4 13 Nordeste 28 Este 0 -- -- 41
2019-10-01 12:00:00 22.3 8 Sur 15 Sudeste 0 -- -- 41
2019-10-01 11:00:00 16.9 0 Calma 9 Este 0 -- -- 58
2019-10-01 10:00:00 13.3 3 Nordeste 9 Nordeste 0 -- -- 65
2019-10-01 09:00:00 10.9 3 Sudeste 10 Nordeste 0 -- -- 69
2019-10-01 08:00:00 10.2 3 Norte 9 Norte 0 -- -- 70
2019-10-01 07:00:00 10.7 3 Norte 9 Norte 0 -- -- 67
2019-10-01 06:00:00 11 3 Norte 9 Norte 0 -- -- 66
2019-10-01 05:00:00 11.2 3 Norte 9 Nordeste 0 -- -- 65
2019-10-01 04:00:00 11.8 0 Calma 14 Norte 0 -- -- 63
2019-10-01 03:00:00 12.6 4 Norte 11 Nordeste 0 -- -- 60
2019-10-01 02:00:00 12.9 3 Norte 12 Nordeste 0 -- -- 58
2019-10-01 01:00:00 13.6 4 Norte 12 Nordeste 0 -- -- 55
2019-10-01 00:00:00 14.5 3 Norte 10 Nordeste 0 -- -- 53
2019-09-30 23:00:00 15.6 2 Norte 9 Este 0 -- -- 51
2019-09-30 22:00:00 17.2 0 Calma 8 Nordeste 0 -- -- 45
2019-09-30 21:00:00 18.9 3 Nordeste 6 Nordeste 0 -- -- 42
2019-09-30 20:00:00 21.6 5 Sur 9 Sudoeste 0 -- -- 34
2019-09-30 19:00:00 23.9 2 Sudoeste 17 Sudeste 0 -- -- 31
2019-09-30 18:00:00 27.1 7 Sur 23 Sur 0 -- -- 27
2019-09-30 17:00:00 27.7 9 Sur 27 Sudeste 0 -- -- 25
2019-09-30 16:00:00 27.2 12 Sur 30 Sudeste 0 -- -- 25
2019-09-30 15:00:00 26.8 11 Sur 27 Sudeste 0 -- -- 26
2019-09-30 14:00:00 26.1 10 Sur 24 Sur 0 -- -- 29
2019-09-30 13:00:00 24.8 9 Sudeste 19 Sudeste 0 -- -- 32
2019-09-30 12:00:00 22.2 3 Sur 9 Sur 0 -- -- 37
2019-09-30 11:00:00 17.3 5 Nordeste 12 Norte 0 -- -- 54
2019-09-30 10:00:00 13.1 8 Nordeste 13 Nordeste 0 -- -- 65
2019-09-30 09:00:00 10.7 9 Nordeste 12 Norte 0 -- -- 74
2019-09-30 08:00:00 10.7 6 Nordeste 11 Nordeste 0 -- -- 77
2019-09-30 07:00:00 11.3 0 Calma 5 Norte 0 -- -- 73
2019-09-30 06:00:00 12.6 2 Norte 15 Nordeste 0 -- -- 67
2019-09-30 05:00:00 13.4 7 Nordeste 14 Nordeste 0 -- -- 62
2019-09-30 04:00:00 13.4 0 Calma 17 Norte 0 -- -- 58
2019-09-30 03:00:00 14.4 11 Nordeste 19 Nordeste 0 -- -- 52
2019-09-30 02:00:00 14.9 4 Norte 22 Nordeste 0 -- -- 49
2019-09-30 01:00:00 14.8 8 Nordeste 18 Nordeste 0 -- -- 50
2019-09-30 00:00:00 15.2 2 Norte 13 Norte 0 -- -- 51
2019-09-29 23:00:00 16.4 5 Norte 15 Nordeste 0 -- -- 47
2019-09-29 22:00:00 17.7 2 Norte 9 Norte 0 -- -- 44
2019-09-29 21:00:00 19.5 2 Norte 10 Norte 0 -- -- 44
2019-09-29 20:00:00 21.8 0 Calma 7 Sudoeste 0 -- -- 41
2019-09-29 19:00:00 24.5 2 Sudoeste 16 Sudeste 0 -- -- 36
2019-09-29 18:00:00 27.5 9 Sur 21 Sur 0 -- -- 30
2019-09-29 17:00:00 28 11 Sur 23 Sudeste 0 -- -- 28
2019-09-29 16:00:00 27.7 8 Sur 23 Sudeste 0 -- -- 29
2019-09-29 15:00:00 26.8 12 Sudeste 25 Sudeste 0 -- -- 27
2019-09-29 14:00:00 25.9 12 Sudeste 26 Sudeste 0 -- -- 31
2019-09-29 13:00:00 23.8 14 Sudeste 26 Sudeste 0 -- -- 34
2019-09-29 12:00:00 21.4 5 Sudeste 12 Sudeste 0 -- -- 37
2019-09-29 11:00:00 15.6 4 Nordeste 13 Norte 0 -- -- 54
2019-09-29 10:00:00 11.8 7 Nordeste 13 Nordeste 0 -- -- 65
2019-09-29 09:00:00 9.6 5 Nordeste 11 Norte 0 -- -- 73
2019-09-29 08:00:00 9 3 Norte 8 Norte 0 -- -- 75
2019-09-29 07:00:00 9.8 4 Norte 10 Nordeste 0 -- -- 72
2019-09-29 06:00:00 9.9 0 Calma 11 Norte 0 -- -- 71
2019-09-29 05:00:00 10.4 4 Norte 9 Norte 0 -- -- 70
2019-09-29 04:00:00 11.4 5 Nordeste 12 Nordeste 0 -- -- 66
2019-09-29 03:00:00 11.9 4 Norte 12 Nordeste 0 -- -- 65
2019-09-29 02:00:00 12.7 0 Calma 11 Nordeste 0 -- -- 63
2019-09-29 01:00:00 13.2 5 Norte 11 Norte 0 -- -- 62
2019-09-29 00:00:00 14.3 4 Norte 12 Nordeste 0 -- -- 60
2019-09-28 23:00:00 15.5 0 Calma 7 Nordeste 0 -- -- 58
2019-09-28 22:00:00 17 2 Norte 9 Nordeste 0 -- -- 51
2019-09-28 21:00:00 18.1 0 Calma 5 Sur 0 -- -- 49
2019-09-28 20:00:00 20.7 4 Sur 14 Sur 0 -- -- 43
2019-09-28 19:00:00 23.7 6 Sur 19 Sudeste 0 -- -- 35
2019-09-28 18:00:00 26.6 10 Sudeste 22 Sudeste 0 -- -- 28
2019-09-28 17:00:00 26.7 9 Sudeste 24 Sudeste 0 -- -- 27
2019-09-28 16:00:00 26.5 7 Sur 26 Sudeste 0 -- -- 26
2019-09-28 15:00:00 26.2 9 Sur 23 Sur 0 -- -- 28
2019-09-28 14:00:00 25 10 Sudeste 24 Sudeste 0 -- -- 30
2019-09-28 13:00:00 23.8 9 Sur 17 Sudeste 0 -- -- 35
2019-09-28 12:00:00 21.2 2 Este 7 Nordeste 0 -- -- 40
2019-09-28 11:00:00 16.6 5 Nordeste 13 Nordeste 0 -- -- 52
2019-09-28 10:00:00 12.6 10 Nordeste 15 Nordeste 0 -- -- 63
2019-09-28 09:00:00 9.8 9 Nordeste 13 Nordeste 0 -- -- 76
2019-09-28 08:00:00 9.2 2 Norte 8 Norte 0 -- -- 80
2019-09-28 07:00:00 9.8 4 Norte 11 Nordeste 0 -- -- 78
2019-09-28 06:00:00 10.5 4 Norte 9 Nordeste 0 -- -- 76
2019-09-28 05:00:00 11 5 Norte 9 Nordeste 0 -- -- 75
2019-09-28 04:00:00 11.9 6 Norte 10 Norte 0 -- -- 68
2019-09-28 03:00:00 12.5 4 Norte 15 Nordeste 0 -- -- 63
2019-09-28 02:00:00 13.2 9 Nordeste 15 Nordeste 0 -- -- 57
2019-09-28 01:00:00 14 9 Nordeste 20 Nordeste 0 -- -- 51
2019-09-28 00:00:00 15.1 8 Nordeste 21 Nordeste 0 -- -- 48
2019-09-27 23:00:00 16.7 9 Nordeste 23 Nordeste 0 -- -- 41
2019-09-27 22:00:00 18.1 17 Nordeste 23 Nordeste 0 -- -- 38
2019-09-27 21:00:00 21.4 13 Nordeste 21 Nordeste 0 -- -- 27
2019-09-27 20:00:00 22.3 4 Nordeste 15 Nordeste 0 -- -- 29
2019-09-27 19:00:00 24.1 7 Nordeste 21 Nordeste 0 -- -- 28
2019-09-27 18:00:00 25.9 11 Nordeste 24 Este 0 -- -- 25
2019-09-27 17:00:00 27 10 Sur 25 Sudeste 0 -- -- 31
2019-09-27 16:00:00 26.6 12 Sur 24 Sudeste 0 -- -- 29
2019-09-27 15:00:00 26.1 8 Sur 22 Sur 0 -- -- 30
2019-09-27 14:00:00 25.4 6 Sudeste 18 Sur 0 -- -- 32
2019-09-27 13:00:00 24.3 6 Sur 18 Sudeste 0 -- -- 33
2019-09-27 12:00:00 21.8 3 Este 9 Sudeste 0 -- -- 36
2019-09-27 11:00:00 17 2 Nordeste 12 Nordeste 0 -- -- 53
2019-09-27 10:00:00 13.6 7 Nordeste 19 Nordeste 0 -- -- 62
2019-09-27 09:00:00 11.5 6 Nordeste 12 Norte 0 -- -- 70
2019-09-27 08:00:00 11.4 4 Nordeste 12 Nordeste 0 -- -- 73
2019-09-27 07:00:00 11.1 2 Norte 7 Norte 0 -- -- 74
2019-09-27 06:00:00 11.4 3 Norte 9 Nordeste 0 -- -- 74
2019-09-27 05:00:00 12 3 Norte 9 Nordeste 0 -- -- 71
2019-09-27 04:00:00 12.4 6 Noroeste 10 Norte 0 -- -- 71
2019-09-27 03:00:00 13.1 4 Norte 13 Nordeste 0 -- -- 70
2019-09-27 02:00:00 13.8 4 Norte 10 Norte 0 -- -- 73
2019-09-27 01:00:00 14.9 4 Norte 12 Norte 0 -- -- 71
2019-09-27 00:00:00 15.7 4 Norte 11 Nordeste 0 -- -- 68
2019-09-26 23:00:00 16.8 5 Norte 11 Nordeste 0 -- -- 67
2019-09-26 22:00:00 17.4 0 Calma 4 Sudoeste 0 -- -- 65
2019-09-26 21:00:00 18.9 0 Calma 12 Sur 0 -- -- 59
2019-09-26 20:00:00 20.6 4 Sur 9 Sudoeste 0 -- -- 52
2019-09-26 19:00:00 23.1 5 Sudoeste 15 Sudeste 0 -- -- 45
2019-09-26 18:00:00 25.6 9 Sudeste 24 Sudeste 0 -- -- 40
2019-09-26 17:00:00 25.5 10 Sudeste 26 Sudeste 0 -- -- 39
2019-09-26 16:00:00 25 11 Sudeste 26 Sudeste 0 -- -- 38
2019-09-26 15:00:00 24.2 13 Sudeste 31 Sudeste 0 -- -- 39
2019-09-26 14:00:00 23.4 8 Sudeste 28 Sudeste 0 -- -- 42
2019-09-26 13:00:00 21.9 9 Sur 23 Sudeste 0 -- -- 45
2019-09-26 12:00:00 20 9 Sur 17 Sur 0 -- -- 49
2019-09-26 11:00:00 15.6 3 Nordeste 10 Nordeste 0 -- -- 60
2019-09-26 10:00:00 12.3 7 Nordeste 11 Nordeste 0 -- -- 75
2019-09-26 09:00:00 10.2 8 Nordeste 12 Nordeste 0 -- -- 83
2019-09-26 08:00:00 9.6 3 Norte 7 Noroeste 0 -- -- 87
2019-09-26 07:00:00 10 3 Norte 12 Norte 0 -- -- 84
2019-09-26 06:00:00 10.4 0 Calma 9 Nordeste 0 -- -- 84
2019-09-26 05:00:00 10.9 3 Norte 9 Nordeste 0 -- -- 82
2019-09-26 04:00:00 11.1 3 Norte 10 Nordeste 0 -- -- 81
2019-09-26 03:00:00 11.7 3 Norte 12 Nordeste 0 -- -- 79
2019-09-26 02:00:00 12.3 4 Noroeste 15 Nordeste 0 -- -- 76
2019-09-26 01:00:00 13.4 9 Nordeste 15 Nordeste 0 -- -- 71
2019-09-26 00:00:00 14.4 3 Norte 13 Norte 0 -- -- 66
2019-09-25 23:00:00 15.6 6 Nordeste 13 Nordeste 0 -- -- 62
2019-09-25 22:00:00 16.8 2 Norte 11 Nordeste 0 -- -- 55
2019-09-25 21:00:00 18.1 3 Nordeste 20 Nordeste 0 -- -- 50
2019-09-25 20:00:00 19.3 7 Nordeste 20 Norte 0 -- -- 47
2019-09-25 19:00:00 20.9 6 Nordeste 21 Nordeste 0 -- -- 44
2019-09-25 18:00:00 22.7 0 Calma 13 Sudeste 0 -- -- 40
2019-09-25 17:00:00 23.3 6 Sur 17 Sur 0 -- -- 37
2019-09-25 16:00:00 22.5 5 Sudoeste 11 Sudoeste 0 -- -- 37
2019-09-25 15:00:00 21.4 4 Nordeste 16 Sudeste 0 -- -- 38
2019-09-25 14:00:00 20.4 2 Nordeste 12 Nordeste 0 -- -- 38
2019-09-25 13:00:00 18.8 5 Nordeste 16 Nordeste 0 -- -- 43
2019-09-25 12:00:00 17.3 3 Nordeste 20 Nordeste 0 -- -- 49
2019-09-25 11:00:00 15.6 15 Nordeste 29 Nordeste 0 -- -- 55
2019-09-25 10:00:00 14 11 Nordeste 34 Nordeste 0 -- -- 62
2019-09-25 09:00:00 13.7 17 Nordeste 31 Nordeste 0 -- -- 63
2019-09-25 08:00:00 13.6 18 Nordeste 37 Este 0 -- -- 63
2019-09-25 07:00:00 14.2 17 Nordeste 34 Nordeste 0 -- -- 62
2019-09-25 06:00:00 15 14 Nordeste 40 Nordeste 0 -- -- 60
2019-09-25 05:00:00 15.1 15 Nordeste 36 Nordeste 0 -- -- 62
2019-09-25 04:00:00 15.8 18 Nordeste 39 Norte 0 -- -- 62
2019-09-25 03:00:00 16.3 18 Nordeste 38 Nordeste 0 -- -- 64
2019-09-25 02:00:00 17.6 18 Nordeste 43 Nordeste 0 -- -- 59
2019-09-25 01:00:00 18.1 18 Nordeste 42 Nordeste 0 -- -- 62
2019-09-25 00:00:00 18.5 18 Nordeste 41 Nordeste 0 -- -- 63
2019-09-24 23:00:00 19.1 13 Nordeste 38 Nordeste 0 -- -- 62
2019-09-24 22:00:00 19.5 14 Nordeste 35 Nordeste 0 -- -- 61
2019-09-24 21:00:00 19.7 13 Nordeste 32 Nordeste 0 -- -- 67
2019-09-24 20:00:00 20.9 5 Nordeste 18 Nordeste 0 -- -- 65
2019-09-24 19:00:00 22.2 6 Nordeste 19 Nordeste 0 -- -- 59
2019-09-24 18:00:00 23.1 6 Nordeste 24 Sudeste 0 -- -- 54
2019-09-24 17:00:00 23.2 6 Sudoeste 25 Sudeste 0 -- -- 49
2019-09-24 16:00:00 22.9 13 Sudeste 29 Sur 0 -- -- 46
2019-09-24 15:00:00 23.3 17 Sudeste 29 Sudeste 0 -- -- 47
2019-09-24 14:00:00 22.4 8 Sudeste 19 Sudeste 0 -- -- 50
2019-09-24 13:00:00 20.3 12 Sudeste 21 Sudeste 0 -- -- 51
2019-09-24 12:00:00 18.3 8 Sur 16 Sudeste 0 -- -- 61
2019-09-24 11:00:00 15.1 7 Sudeste 13 Sudeste 0 -- -- 73
2019-09-24 10:00:00 11.2 7 Nordeste 10 Nordeste 0 -- -- 88
2019-09-24 09:00:00 9.3 3 Nordeste 5 Norte 0 -- -- 95
2019-09-24 08:00:00 8.9 0 Calma 6 Norte 0 -- -- 95
2019-09-24 07:00:00 9.5 2 Norte 5 Norte 0 -- -- 93
2019-09-24 06:00:00 10 2 Norte 8 Nordeste 0 -- -- 92
2019-09-24 05:00:00 10.3 3 Norte 9 Nordeste 0 -- -- 91
2019-09-24 04:00:00 10.8 4 Norte 9 Nordeste 0 -- -- 90
2019-09-24 03:00:00 11 0 Calma 5 Noroeste 0 -- -- 90
2019-09-24 02:00:00 11.9 3 Norte 9 Nordeste 0 -- -- 87
2019-09-24 01:00:00 12.5 3 Norte 7 Norte 0 -- -- 85
2019-09-24 00:00:00 13.2 5 Nordeste 9 Nordeste 0 -- -- 83
2019-09-23 23:00:00 13.6 0 Calma 3 Norte 0 -- -- 82
2019-09-23 22:00:00 14.9 0 Calma 4 Nordeste 0 -- -- 76
2019-09-23 21:00:00 16.3 0 Calma 10 Sudoeste 0 -- -- 72
2019-09-23 20:00:00 18.5 3 Sudoeste 21 Sudeste 0 -- -- 60
2019-09-23 19:00:00 19.7 10 Sudeste 19 Sudeste 0 -- -- 55
2019-09-23 18:00:00 20.6 9 Sudeste 23 Sudeste 0 -- -- 53
2019-09-23 17:00:00 21.1 5 Sur 25 Sudeste 0 -- -- 51
2019-09-23 16:00:00 20.6 12 Sudeste 28 Sudeste 0 -- -- 49
2019-09-23 15:00:00 20 12 Sudeste 29 Sudeste 0 -- -- 50
2019-09-23 14:00:00 20 9 Sudeste 24 Sudeste 0 -- -- 50
2019-09-23 13:00:00 18.6 12 Sudeste 25 Sudeste 0 -- -- 52
2019-09-23 12:00:00 17.4 13 Sudeste 26 Sudeste 0 -- -- 53
2019-09-23 11:00:00 14 6 Nordeste 10 Nordeste 0 -- -- 67
2019-09-23 10:00:00 10.8 6 Nordeste 16 Nordeste 0 -- -- 78
2019-09-23 09:00:00 8.8 12 Nordeste 18 Nordeste 0 -- -- 86
2019-09-23 08:00:00 7.9 4 Norte 15 Nordeste 0 -- -- 91
2019-09-23 07:00:00 8.2 3 Norte 11 Nordeste 0 -- -- 91
2019-09-23 06:00:00 8.7 3 Norte 9 Nordeste 0 -- -- 89
2019-09-23 05:00:00 8.8 0 Calma 12 Nordeste 0 -- -- 90
2019-09-23 04:00:00 9.4 0 Calma 7 Noroeste 0 -- -- 88
2019-09-23 03:00:00 10 3 Noroeste 10 Norte 0 -- -- 84
2019-09-23 02:00:00 11.1 4 Nordeste 13 Nordeste 0 -- -- 80
2019-09-23 01:00:00 11.6 7 Nordeste 19 Nordeste 0 -- -- 79
2019-09-23 00:00:00 13.1 13 Nordeste 20 Nordeste 0 -- -- 72
2019-09-22 23:00:00 14.4 13 Nordeste 18 Nordeste 0 -- -- 65
2019-09-22 22:00:00 15.6 8 Nordeste 17 Nordeste 0 -- -- 56
2019-09-22 21:00:00 16.3 8 Nordeste 21 Norte 0 -- -- 51
2019-09-22 20:00:00 17.2 10 Nordeste 23 Este 0 -- -- 51
2019-09-22 19:00:00 18.4 9 Nordeste 19 Este 0 -- -- 48
2019-09-22 18:00:00 19.5 9 Nordeste 21 Nordeste 0 -- -- 44
2019-09-22 17:00:00 19.2 14 Nordeste 30 Norte 0 -- -- 46
2019-09-22 16:00:00 18.5 14 Nordeste 26 Nordeste 0 -- -- 51
2019-09-22 15:00:00 18.2 13 Nordeste 30 Norte 0 -- -- 54
2019-09-22 14:00:00 17.8 6 Este 20 Nordeste 0 -- -- 58
2019-09-22 13:00:00 17.3 7 Este 20 Norte 0 -- -- 66
2019-09-22 12:00:00 16.7 5 Sur 15 Norte 0 -- -- 79
2019-09-22 11:00:00 15.3 4 Nordeste 10 Nordeste 0 -- -- 82
2019-09-22 10:00:00 15 6 Nordeste 18 Sudeste 0 -- -- 90
2019-09-22 09:00:00 14.9 9 Sudeste 17 Sudeste 0.4 -- -- 97
2019-09-22 08:00:00 14.9 6 Sudeste 21 Sudeste 0 -- -- 96
2019-09-22 07:00:00 14.8 7 Sudeste 18 Sudeste 0.4 -- -- 96
2019-09-22 06:00:00 15.1 9 Sudeste 24 Sudeste 0 -- -- 95
2019-09-22 05:00:00 15.1 12 Sudeste 27 Sudeste 0.2 -- -- 96
2019-09-22 04:00:00 14.8 6 Sudeste 12 Sudeste 0.2 -- -- 97
2019-09-22 03:00:00 14.8 4 Sudeste 12 Sudeste 0.6 -- -- 96
2019-09-22 02:00:00 15.2 8 Sudeste 19 Sudeste 0.2 -- -- 94
2019-09-22 01:00:00 15.2 7 Sudeste 13 Sudeste 0 -- -- 95
2019-09-22 00:00:00 15.3 4 Sur 12 Sur 0 -- -- 95
2019-09-21 23:00:00 15.6 6 Sudeste 13 Sudeste 0 -- -- 95
2019-09-21 22:00:00 15.8 7 Sudeste 11 Sudeste 0 -- -- 95
2019-09-21 21:00:00 15.9 5 Sudeste 12 Sudeste 0.2 -- -- 92
2019-09-21 20:00:00 16.2 7 Sudeste 13 Sudeste 0.4 -- -- 91
2019-09-21 19:00:00 17.2 0 Calma 10 Sudeste 0 -- -- 85
2019-09-21 18:00:00 17.5 6 Sudeste 17 Sudeste 0 -- -- 80
2019-09-21 17:00:00 17.7 6 Sudeste 19 Sudeste 0 -- -- 77
2019-09-21 16:00:00 16.7 6 Sudeste 27 Sudeste 0.2 -- -- 85
2019-09-21 15:00:00 17.9 13 Sudeste 32 Sudeste 0 -- -- 73
2019-09-21 14:00:00 17.7 9 Sudeste 28 Sudeste 0 -- -- 73
2019-09-21 13:00:00 16.8 6 Sudeste 20 Sudeste 0 -- -- 80
2019-09-21 12:00:00 16.4 6 Sudeste 17 Sudeste 0 -- -- 84
2019-09-21 11:00:00 16 8 Sudeste 17 Sudeste 0 -- -- 92
2019-09-21 10:00:00 14.8 5 Sudeste 12 Sudeste 0 -- -- 98
2019-09-21 09:00:00 13.5 0 Calma 4 Nordeste 0 -- -- 97
2019-09-21 08:00:00 13.9 0 Calma 6 Norte 0 -- -- 97
2019-09-21 07:00:00 13.6 0 Calma 5 Sur 0 -- -- 98
2019-09-21 06:00:00 14 3 Sur 5 Sur 0 -- -- 97
2019-09-21 05:00:00 14 0 Calma 5 Norte 0.2 -- -- 96
2019-09-21 04:00:00 14.1 0 Calma 12 Nordeste 0.8 -- -- 95
2019-09-21 03:00:00 13.9 4 Sur 10 Nordeste 0.6 -- -- 96
2019-09-21 02:00:00 14 7 Nordeste 12 Norte 0.2 -- -- 94
2019-09-21 01:00:00 13.9 2 Sur 12 Noroeste 2.6 -- -- 94
2019-09-21 00:00:00 13.9 3 Sudoeste 23 Norte 0.2 -- -- 94
2019-09-20 23:00:00 12.8 6 Norte 59 Oeste 12.2 -- -- 99
2019-09-20 22:00:00 20 12 Sur 25 Sudeste 0 -- -- 70
2019-09-20 21:00:00 19.5 0 Calma 4 Sur 0 -- -- 72
2019-09-20 20:00:00 20.7 0 Calma 17 Sudeste 0 -- -- 65
2019-09-20 19:00:00 21.8 9 Sudeste 22 Sudeste 0 -- -- 61
2019-09-20 18:00:00 21.7 8 Sudeste 22 Sudeste 0 -- -- 62
2019-09-20 17:00:00 21.9 10 Sudeste 23 Sudeste 0 -- -- 61
2019-09-20 16:00:00 22.4 5 Sur 20 Sudeste 0 -- -- 59
2019-09-20 15:00:00 22.8 9 Sudeste 21 Sur 0 -- -- 56
2019-09-20 14:00:00 22.4 9 Sur 21 Sudeste 0 -- -- 59
2019-09-20 13:00:00 21 6 Sur 21 Sur 0 -- -- 63
2019-09-20 12:00:00 19.5 8 Sudeste 17 Sudeste 0 -- -- 68
2019-09-20 11:00:00 17.2 3 Nordeste 8 Nordeste 0 -- -- 78
2019-09-20 10:00:00 14.2 0 Calma 8 Nordeste 0 -- -- 89
2019-09-20 09:00:00 12.6 3 Norte 8 Nordeste 0.4 -- -- 92
2019-09-20 08:00:00 12.6 0 Calma 8 Nordeste 0 -- -- 91
2019-09-20 07:00:00 12.6 3 Norte 9 Nordeste 0 -- -- 91
2019-09-20 06:00:00 12.6 3 Norte 9 Norte 0 -- -- 90
2019-09-20 05:00:00 12.8 3 Norte 10 Nordeste 0 -- -- 90
2019-09-20 04:00:00 13.2 5 Norte 9 Nordeste 0 -- -- 88
2019-09-20 03:00:00 13.9 2 Norte 10 Nordeste 0 -- -- 85
2019-09-20 02:00:00 14.3 3 Norte 9 Nordeste 0 -- -- 84
2019-09-20 01:00:00 14.7 5 Norte 11 Nordeste 0 -- -- 83
2019-09-20 00:00:00 15.4 3 Norte 9 Nordeste 0 -- -- 80
2019-09-19 23:00:00 16.3 0 Calma 11 Nordeste 0 -- -- 77
2019-09-19 22:00:00 17.1 5 Norte 14 Noroeste 0 -- -- 75
2019-09-19 21:00:00 18.3 0 Calma 6 Norte 0 -- -- 72
2019-09-19 20:00:00 20.4 0 Calma 12 Nordeste 0 -- -- 62
2019-09-19 19:00:00 20.7 4 Nordeste 18 Nordeste 0 -- -- 59
2019-09-19 18:00:00 20.3 6 Nordeste 14 Nordeste 0 -- -- 59
2019-09-19 17:00:00 21.1 3 Sur 17 Oeste 0.4 -- -- 65
2019-09-19 16:00:00 25.3 9 Sudoeste 29 Sudeste 0 -- -- 40
2019-09-19 15:00:00 25.6 15 Sudeste 28 Sudeste 0 -- -- 43
2019-09-19 14:00:00 24.6 10 Sudeste 24 Sur 0 -- -- 47
2019-09-19 13:00:00 23.4 10 Sudeste 22 Sudeste 0 -- -- 51
2019-09-19 12:00:00 22 6 Sudeste 15 Sudeste 0 -- -- 56
2019-09-19 11:00:00 18 2 Nordeste 9 Nordeste 0 -- -- 69
2019-09-19 10:00:00 14.8 7 Nordeste 12 Nordeste 0 -- -- 78
2019-09-19 09:00:00 12.8 8 Nordeste 12 Nordeste 0 -- -- 86
2019-09-19 08:00:00 12.1 2 Norte 9 Norte 0 -- -- 90
2019-09-19 07:00:00 12.1 2 Norte 10 Nordeste 0 -- -- 90
2019-09-19 06:00:00 12.3 3 Norte 8 Nordeste 0 -- -- 90
2019-09-19 05:00:00 12.8 4 Norte 15 Nordeste 0 -- -- 87
2019-09-19 04:00:00 12.9 4 Norte 11 Norte 0 -- -- 88
2019-09-19 03:00:00 13.5 4 Norte 11 Nordeste 0 -- -- 86
2019-09-19 02:00:00 14 4 Norte 14 Nordeste 0 -- -- 85
2019-09-19 01:00:00 15 3 Norte 12 Nordeste 0 -- -- 81
2019-09-19 00:00:00 15.7 4 Norte 11 Nordeste 0 -- -- 79
2019-09-18 23:00:00 17 4 Nordeste 10 Nordeste 0 -- -- 73
2019-09-18 22:00:00 18.4 3 Nordeste 10 Nordeste 0 -- -- 67
2019-09-18 21:00:00 19.4 0 Calma 2 Nordeste 0 -- -- 72
2019-09-18 20:00:00 21.2 0 Calma 5 Sudoeste 0 -- -- 64
2019-09-18 19:00:00 22.5 3 Sudoeste 11 Sur 0 -- -- 57
2019-09-18 18:00:00 24.8 5 Sur 13 Sudeste 0 -- -- 47
2019-09-18 17:00:00 25.2 5 Sur 11 Sur 0 -- -- 45
2019-09-18 16:00:00 22.6 4 Nordeste 9 Nordeste 0 -- -- 47
2019-09-18 15:00:00 22.1 4 Nordeste 8 Sur 0 -- -- 50
2019-09-18 14:00:00 21.7 4 Sur 11 Sudoeste 0 -- -- 56
2019-09-18 13:00:00 19.3 0 Calma 4 Este 0 -- -- 66
2019-09-18 12:00:00 16.8 0 Calma 8 Nordeste 0 -- -- 77
2019-09-18 11:00:00 15 0 Calma 3 Nordeste 0 -- -- 89
2019-09-18 10:00:00 14.2 0 Calma 5 Nordeste 0 -- -- 90
2019-09-18 09:00:00 13.6 3 Noroeste 11 Norte 0 -- -- 92
2019-09-18 08:00:00 13.3 6 Norte 13 Nordeste 0 -- -- 91
2019-09-18 07:00:00 13.1 3 Norte 11 Nordeste 0 -- -- 92
2019-09-18 06:00:00 13.2 4 Norte 11 Norte 0 -- -- 92
2019-09-18 05:00:00 12.9 6 Nordeste 13 Nordeste 0 -- -- 95
2019-09-18 04:00:00 13 0 Calma 5 Sudeste 0 -- -- 95
2019-09-18 03:00:00 14.1 3 Nordeste 16 Nordeste 0 -- -- 91
2019-09-18 02:00:00 14.6 6 Norte 15 Nordeste 0 -- -- 92
2019-09-18 01:00:00 14.6 3 Noroeste 10 Sudeste 0 -- -- 92
2019-09-18 00:00:00 15.1 3 Noroeste 30 Nordeste 0.4 -- -- 88
2019-09-17 23:00:00 15.1 9 Nordeste 22 Nordeste 1.6 -- -- 87
2019-09-17 22:00:00 14.6 10 Sur 54 Sudeste 12.6 -- -- 89
2019-09-17 21:00:00 20.9 2 Sur 12 Sur 0 -- -- 63
2019-09-15 18:00:00 -- -- -- -- -- -- -- -- --
2019-09-15 17:00:00 15.4 3 Noroeste 16 Norte 9.6 -- -- 94
2019-09-15 16:00:00 16.4 12 Nordeste 20 Nordeste 1.8 -- -- 92
2019-09-15 15:00:00 17.2 7 Nordeste 10 Nordeste 0 -- -- 84
2019-09-15 14:00:00 16.3 6 Nordeste 10 Nordeste 0 -- -- 89
2019-09-15 13:00:00 14.9 6 Nordeste 14 Nordeste 2.6 -- -- 92
2019-09-15 12:00:00 14.4 7 Nordeste 17 Sudoeste 6.4 -- -- 91
2019-09-15 11:00:00 15.3 4 Sudoeste 11 Sudoeste 1.8 -- -- 85
2019-09-15 10:00:00 16.2 2 Sudeste 8 Nordeste 0 -- -- 88
2019-09-15 09:00:00 15.5 2 Nordeste 8 Nordeste 0 -- -- 90
2019-09-15 08:00:00 15.2 0 Calma 7 Noroeste 0 -- -- 90
2019-09-15 07:00:00 15 0 Calma 7 Nordeste 0 -- -- 92
2019-09-15 06:00:00 15 3 Sudoeste 12 Nordeste 0.2 -- -- 92
2019-09-15 05:00:00 15.4 0 Calma 8 Nordeste 0.8 -- -- 89
2019-09-15 04:00:00 16.8 0 Calma 6 Sudoeste 0 -- -- 71
2019-09-15 03:00:00 17.1 0 Calma 8 Noroeste 0 -- -- 71
2019-09-15 02:00:00 16.9 0 Calma 7 Sudoeste 0 -- -- 73
2019-09-15 01:00:00 16.5 4 Sudoeste 8 Sudoeste 0 -- -- 78
2019-09-15 00:00:00 16 3 Norte 14 Nordeste 0 -- -- 84